Time;durP1;ratioP1;P1;durP2;ratioP2;P2;SDS_P1;SDS_P2;PMS_P1;PMS_P2;Temp;Humidity;BMP_temperature;BMP_pressure;BME280_temperature;BME280_humidity;BME280_pressure;Samples;Min_cycle;Max_cycle;Signal;HPM_P1;HPM_P2
2021/01/15 00:00:23;;;;;;;;;;;;;;;;;;5097114;28;19912;-59
2021/01/15 00:02:49;;;;;;;;;;;;;;;;;;5115245;28;20273;-59
2021/01/15 00:05:15;;;;;;;;;;;;;;;;;;5114623;28;19907;-60
2021/01/15 00:07:41;;;;;;;;;;;;;;;;;;5115025;28;19908;-59
2021/01/15 00:10:07;;;;;;;;;;;;;;;;;;5114953;28;19923;-59
2021/01/15 00:12:33;;;;;;;;;;;;;;;;;;5115166;28;19919;-60
2021/01/15 00:14:59;;;;;;;;;;;;;;;;;;5096426;28;19908;-59
2021/01/15 00:17:25;;;;;;;;;;;;;;;;;;5096141;28;19908;-59
2021/01/15 00:19:51;;;;;;;;;;;;;;;;;;5114850;28;20356;-59
2021/01/15 00:22:17;;;;;;;;;;;;;;;;;;5114822;28;19907;-60
2021/01/15 00:24:43;;;;;;;;;;;;;;;;;;5114278;28;19919;-60
2021/01/15 00:27:09;;;;;;;;;;;;;;;;;;5114615;28;19961;-59
2021/01/15 00:29:35;;;;;;;;;;;;;;;;;;5114471;28;20368;-60
2021/01/15 00:32:01;;;;;;;;;;;;;;;;;;5114041;28;19908;-59
2021/01/15 00:34:27;;;;;;;;;;;;;;;;;;5096105;28;20257;-60
2021/01/15 00:36:53;;;;;;;;;;;;;;;;;;5114263;28;19912;-59
2021/01/15 00:39:19;;;;;;;;;;;;;;;;;;5113343;28;19908;-59
2021/01/15 00:41:45;;;;;;;;;;;;;;;;;;5114456;28;20006;-59
2021/01/15 00:44:11;;;;;;;;;;;;;;;;;;5114273;28;19908;-60
2021/01/15 00:46:43;;;;;;;;;;;;;;;;;;5113739;28;20407;-59
2021/01/15 00:49:09;;;;;;;;;;;;;;;;;;5113842;28;19962;-59
2021/01/15 00:51:35;;;;;;;;;;;;;;;;;;5114167;28;20284;-59
2021/01/15 00:54:01;;;;;;;;;;;;;;;;;;5113693;28;19960;-60
2021/01/15 00:56:27;;;;;;;;;;;;;;;;;;5114099;28;19915;-60
2021/01/15 00:58:53;;;;;;;;;;;;;;;;;;5114056;28;19918;-60
2021/01/15 01:01:19;;;;;;;;;;;;;;;;;;5113636;28;19907;-59
2021/01/15 01:03:45;;;;;;;;;;;;;;;;;;5113918;28;19915;-59
2021/01/15 01:06:11;;;;;;;;;;;;;;;;;;5113855;28;20017;-60
2021/01/15 01:08:37;;;;;;;;;;;;;;;;;;5113322;28;19994;-59
2021/01/15 01:11:03;;;;;;;;;;;;;;;;;;5095478;28;20002;-59
2021/01/15 01:13:29;;;;;;;;;;;;;;;;;;5113365;28;19908;-59
2021/01/15 01:15:55;;;;;;;;;;;;;;;;;;5113643;28;19908;-59
2021/01/15 01:18:21;;;;;;;;;;;;;;;;;;5113822;28;19960;-59
2021/01/15 01:20:47;;;;;;;;;;;;;;;;;;5095226;28;19912;-59
2021/01/15 01:23:13;;;;;;;;;;;;;;;;;;5113561;28;19995;-59
2021/01/15 01:25:39;;;;;;;;;;;;;;;;;;5113510;28;19977;-59
2021/01/15 01:28:05;;;;;;;;;;;;;;;;;;5113103;28;19915;-59
2021/01/15 01:30:31;;;;;;;;;;;;;;;;;;5113340;28;19915;-60
2021/01/15 01:32:57;;;;;;;;;;;;;;;;;;5113305;28;19912;-60
2021/01/15 01:35:23;;;;;;;;;;;;;;;;;;5113034;28;20379;-60
2021/01/15 01:37:49;;;;;;;;;;;;;;;;;;5113595;28;19960;-60
2021/01/15 01:40:15;;;;;;;;;;;;;;;;;;5113287;28;19907;-60
2021/01/15 01:42:41;;;;;;;;;;;;;;;;;;5112952;28;20057;-60
2021/01/15 01:45:07;;;;;;;;;;;;;;;;;;5113253;28;20374;-59
2021/01/15 01:47:33;;;;;;;;;;;;;;;;;;5113093;28;19912;-59
2021/01/15 01:49:59;;;;;;;;;;;;;;;;;;5112318;28;19920;-59
2021/01/15 01:52:25;;;;;;;;;;;;;;;;;;5113120;28;19908;-59
2021/01/15 01:54:51;;;;;;;;;;;;;;;;;;5113235;28;19908;-60
2021/01/15 01:57:17;;;;;;;;;;;;;;;;;;5112941;28;19916;-60
2021/01/15 01:59:43;;;;;;;;;;;;;;;;;;5113117;28;19912;-60
2021/01/15 02:02:09;;;;;;;;;;;;;;;;;;5095138;28;19956;-60
2021/01/15 02:04:35;;;;;;;;;;;;;;;;;;5112813;28;19907;-60
2021/01/15 02:07:01;;;;;;;;;;;;;;;;;;5112997;28;19907;-60
2021/01/15 02:09:28;;;;;;;;;;;;;;;;;;5112883;28;20368;-60
2021/01/15 02:11:54;;;;;;;;;;;;;;;;;;5112489;28;19912;-60
2021/01/15 02:14:21;;;;;;;;;;;;;;;;;;5112958;28;19908;-60
2021/01/15 02:16:47;;;;;;;;;;;;;;;;;;5112717;28;19915;-60
2021/01/15 02:19:12;;;;;;;;;;;;;;;;;;5113057;28;19911;-60
2021/01/15 02:21:38;;;;;;;;;;;;;;;;;;5112865;28;20340;-60
2021/01/15 02:24:04;;;;;;;;;;;;;;;;;;5112583;28;19918;-60
2021/01/15 02:26:30;;;;;;;;;;;;;;;;;;5112822;28;19908;-60
2021/01/15 02:28:56;;;;;;;;;;;;;;;;;;5112760;28;20059;-60
2021/01/15 02:31:22;;;;;;;;;;;;;;;;;;5112681;28;20002;-60
2021/01/15 02:33:48;;;;;;;;;;;;;;;;;;5112771;28;19907;-60
2021/01/15 02:36:14;;;;;;;;;;;;;;;;;;5112994;28;19935;-59
2021/01/15 02:38:40;;;;;;;;;;;;;;;;;;5112447;28;19907;-60
2021/01/15 02:41:06;;;;;;;;;;;;;;;;;;5112674;28;20019;-60
2021/01/15 02:43:32;;;;;;;;;;;;;;;;;;5112590;28;19908;-60
2021/01/15 02:45:58;;;;;;;;;;;;;;;;;;5112373;28;19908;-59
2021/01/15 02:48:24;;;;;;;;;;;;;;;;;;5112665;28;19915;-60
2021/01/15 02:50:50;;;;;;;;;;;;;;;;;;5112448;28;19941;-60
2021/01/15 02:53:16;;;;;;;;;;;;;;;;;;5112181;28;20002;-60
2021/01/15 02:55:42;;;;;;;;;;;;;;;;;;5112732;28;19919;-60
2021/01/15 02:58:08;;;;;;;;;;;;;;;;;;5112781;28;19904;-60
2021/01/15 03:00:34;;;;;;;;;;;;;;;;;;5112252;28;20325;-60
2021/01/15 03:03:00;;;;;;;;;;;;;;;;;;5115092;28;19911;-60
2021/01/15 03:05:26;;;;;;;;;;;;;;;;;;5116240;28;19943;-60
2021/01/15 03:07:52;;;;;;;;;;;;;;;;;;5115916;28;19903;-58
2021/01/15 03:10:18;;;;;;;;;;;;;;;;;;5116106;28;19937;-57
2021/01/15 03:12:44;;;;;;;;;;;;;;;;;;5115840;28;19942;-58
2021/01/15 03:15:10;;;;;;;;;;;;;;;;;;5115741;28;19908;-58
2021/01/15 03:17:36;;;;;;;;;;;;;;;;;;5097807;28;20264;-59
2021/01/15 03:20:02;;;;;;;;;;;;;;;;;;5115552;28;19908;-60
2021/01/15 03:22:28;;;;;;;;;;;;;;;;;;5097515;28;19911;-58
2021/01/15 03:24:54;;;;;;;;;;;;;;;;;;5115667;28;20285;-57
2021/01/15 03:27:20;;;;;;;;;;;;;;;;;;5115424;28;19946;-58
2021/01/15 03:29:45;;;;;;;;;;;;;;;;;;5097336;28;19915;-59
2021/01/15 03:32:11;;;;;;;;;;;;;;;;;;5115567;28;19907;-58
2021/01/15 03:34:37;;;;;;;;;;;;;;;;;;5115150;28;19923;-60
2021/01/15 03:37:03;;;;;;;;;;;;;;;;;;5115819;28;19915;-58
2021/01/15 03:39:29;;;;;;;;;;;;;;;;;;5115622;28;20322;-58
2021/01/15 03:41:55;;;;;;;;;;;;;;;;;;5115068;28;19950;-58
2021/01/15 03:44:21;;;;;;;;;;;;;;;;;;5115345;28;19934;-58
2021/01/15 03:46:47;;;;;;;;;;;;;;;;;;5115255;28;19911;-58
2021/01/15 03:49:13;;;;;;;;;;;;;;;;;;5096332;28;19920;-59
2021/01/15 03:51:39;;;;;;;;;;;;;;;;;;5115313;28;19950;-59
2021/01/15 03:54:05;;;;;;;;;;;;;;;;;;5115160;28;20387;-60
2021/01/15 03:56:31;;;;;;;;;;;;;;;;;;5115145;28;19912;-59
2021/01/15 03:58:57;;;;;;;;;;;;;;;;;;5115309;28;19914;-58
2021/01/15 04:01:23;;;;;;;;;;;;;;;;;;5115102;28;19912;-60
2021/01/15 04:03:49;;;;;;;;;;;;;;;;;;5114566;28;19915;-58
2021/01/15 04:06:15;;;;;;;;;;;;;;;;;;5114934;28;20042;-58
2021/01/15 04:08:41;;;;;;;;;;;;;;;;;;5114878;28;20007;-58
2021/01/15 04:11:07;;;;;;;;;;;;;;;;;;5096142;28;20261;-58
2021/01/15 04:13:33;;;;;;;;;;;;;;;;;;5114744;28;20003;-59
2021/01/15 04:15:59;;;;;;;;;;;;;;;;;;5114916;28;19908;-59
2021/01/15 04:18:25;;;;;;;;;;;;;;;;;;5114512;28;19908;-58
2021/01/15 04:20:51;;;;;;;;;;;;;;;;;;5114680;28;19908;-59
2021/01/15 04:23:17;;;;;;;;;;;;;;;;;;5114578;28;19943;-58
2021/01/15 04:25:43;;;;;;;;;;;;;;;;;;5114936;28;19912;-58
2021/01/15 04:28:09;;;;;;;;;;;;;;;;;;5114622;28;20304;-59
2021/01/15 04:30:35;;;;;;;;;;;;;;;;;;5096017;28;19916;-58
2021/01/15 04:33:01;;;;;;;;;;;;;;;;;;5114428;28;19908;-58
2021/01/15 04:35:27;;;;;;;;;;;;;;;;;;5096138;28;19933;-58
2021/01/15 04:37:53;;;;;;;;;;;;;;;;;;5114169;28;19926;-58
2021/01/15 04:40:19;;;;;;;;;;;;;;;;;;5114505;28;19908;-59
2021/01/15 04:42:45;;;;;;;;;;;;;;;;;;5114303;28;19996;-58
2021/01/15 04:45:11;;;;;;;;;;;;;;;;;;5113805;28;19915;-58
2021/01/15 04:47:37;;;;;;;;;;;;;;;;;;5095870;28;19912;-58
2021/01/15 04:50:03;;;;;;;;;;;;;;;;;;5113914;28;19955;-58
2021/01/15 04:52:29;;;;;;;;;;;;;;;;;;5113758;28;19912;-59
2021/01/15 04:54:55;;;;;;;;;;;;;;;;;;5113990;28;19914;-59
2021/01/15 04:57:21;;;;;;;;;;;;;;;;;;5114027;28;19915;-59
2021/01/15 04:59:47;;;;;;;;;;;;;;;;;;5095322;28;19908;-59
2021/01/15 05:02:13;;;;;;;;;;;;;;;;;;5113864;28;19954;-59
2021/01/15 05:04:39;;;;;;;;;;;;;;;;;;5113822;28;20276;-59
2021/01/15 05:07:05;;;;;;;;;;;;;;;;;;5113336;28;19923;-59
2021/01/15 05:09:31;;;;;;;;;;;;;;;;;;5113666;28;19976;-61
2021/01/15 05:11:57;;;;;;;;;;;;;;;;;;5113651;28;19912;-59
2021/01/15 05:14:23;;;;;;;;;;;;;;;;;;5113250;28;20394;-59
2021/01/15 05:16:49;;;;;;;;;;;;;;;;;;5113552;28;19958;-59
2021/01/15 05:19:15;;;;;;;;;;;;;;;;;;5095492;28;19908;-60
2021/01/15 05:21:41;;;;;;;;;;;;;;;;;;5113044;28;19914;-58
2021/01/15 05:24:07;;;;;;;;;;;;;;;;;;5113238;28;19908;-61
2021/01/15 05:26:33;;;;;;;;;;;;;;;;;;5113272;28;19912;-60
2021/01/15 05:28:59;;;;;;;;;;;;;;;;;;5113347;28;19912;-62
2021/01/15 05:31:25;;;;;;;;;;;;;;;;;;5095197;28;19918;-61
2021/01/15 05:33:51;;;;;;;;;;;;;;;;;;5113052;28;19915;-62
2021/01/15 05:36:17;;;;;;;;;;;;;;;;;;5113376;28;19908;-60
2021/01/15 05:38:43;;;;;;;;;;;;;;;;;;5113664;28;19957;-60
2021/01/15 05:41:09;;;;;;;;;;;;;;;;;;5094607;28;20407;-59
2021/01/15 05:43:38;;;;;;;;;;;;;;;;;;5113319;28;19908;-60
2021/01/15 05:46:04;;;;;;;;;;;;;;;;;;5095001;28;19908;-60
2021/01/15 05:48:30;;;;;;;;;;;;;;;;;;5094507;28;19915;-59
2021/01/15 05:50:56;;;;;;;;;;;;;;;;;;5094680;28;19920;-61
2021/01/15 05:53:22;;;;;;;;;;;;;;;;;;5113255;28;20364;-61
2021/01/15 05:55:48;;;;;;;;;;;;;;;;;;5112974;28;19908;-61
2021/01/15 05:58:14;;;;;;;;;;;;;;;;;;5113265;28;19915;-62
2021/01/15 06:00:40;;;;;;;;;;;;;;;;;;5113202;28;19908;-61
2021/01/15 06:03:06;;;;;;;;;;;;;;;;;;5112708;28;19907;-61
2021/01/15 06:05:32;;;;;;;;;;;;;;;;;;5113052;28;19953;-61
2021/01/15 06:07:58;;;;;;;;;;;;;;;;;;5094753;28;19908;-61
2021/01/15 06:10:24;;;;;;;;;;;;;;;;;;5112640;28;19962;-59
2021/01/15 06:12:53;;;;;;;;;;;;;;;;;;5094745;28;19908;-59
2021/01/15 06:15:19;;;;;;;;;;;;;;;;;;5113057;28;20372;-59
2021/01/15 06:17:45;;;;;;;;;;;;;;;;;;5112659;28;20006;-59
2021/01/15 06:20:11;;;;;;;;;;;;;;;;;;5094657;28;19969;-59
2021/01/15 06:22:37;;;;;;;;;;;;;;;;;;5113168;28;19907;-59
2021/01/15 06:25:03;;;;;;;;;;;;;;;;;;5112493;28;20394;-60
2021/01/15 06:27:29;;;;;;;;;;;;;;;;;;5112771;28;19990;-59
2021/01/15 06:29:55;;;;;;;;;;;;;;;;;;5094089;28;20006;-59
2021/01/15 06:32:21;;;;;;;;;;;;;;;;;;5112789;28;19908;-59
2021/01/15 06:34:47;;;;;;;;;;;;;;;;;;5112853;28;20279;-61
2021/01/15 06:37:13;;;;;;;;;;;;;;;;;;5114088;28;20008;-60
2021/01/15 06:39:39;;;;;;;;;;;;;;;;;;5103430;27;21339;-61
2021/01/15 06:42:05;;;;;;;;;;;;;;;;;;5123280;27;19908;-61
2021/01/15 06:44:31;;;;;;;;;;;;;;;;;;5119168;27;20539;-61
2021/01/15 06:46:57;;;;;;;;;;;;;;;;;;5108923;27;19915;-62
2021/01/15 06:49:23;;;;;;;;;;;;;;;;;;5132762;27;19923;-60
2021/01/15 06:51:49;;;;;;;;;;;;;;;;;;5122356;27;19908;-61
2021/01/15 06:54:17;;;;;;;;;;;;;;;;;;5098030;28;19915;-59
2021/01/15 06:56:43;;;;;;;;;;;;;;;;;;5116447;27;20264;-61
2021/01/15 06:59:09;;;;;;;;;;;;;;;;;;5096465;27;19914;-59
2021/01/15 07:01:35;;;;;;;;;;;;;;;;;;5115787;27;19953;-60
2021/01/15 07:04:01;;;;;;;;;;;;;;;;;;5124851;27;19947;-58
2021/01/15 07:06:27;;;;;;;;;;;;;;;;;;5115626;28;19950;-59
2021/01/15 07:08:53;;;;;;;;;;;;;;;;;;5115997;28;20287;-59
2021/01/15 07:11:19;;;;;;;;;;;;;;;;;;5097410;28;19911;-59
2021/01/15 07:13:45;;;;;;;;;;;;;;;;;;5096995;28;19908;-60
2021/01/15 07:16:11;;;;;;;;;;;;;;;;;;5097583;28;19914;-60
2021/01/15 07:18:37;;;;;;;;;;;;;;;;;;5097173;28;19919;-60
2021/01/15 07:21:03;;;;;;;;;;;;;;;;;;5114838;27;19912;-59
2021/01/15 07:23:29;;;;;;;;;;;;;;;;;;5122970;27;19912;-59
2021/01/15 07:25:55;;;;;;;;;;;;;;;;;;5115213;27;19933;-60
2021/01/15 07:28:21;;;;;;;;;;;;;;;;;;5096899;28;19968;-60
2021/01/15 07:30:47;;;;;;;;;;;;;;;;;;5115449;28;19915;-59
2021/01/15 07:33:13;;;;;;;;;;;;;;;;;;5114882;28;19916;-60
2021/01/15 07:35:39;;;;;;;;;;;;;;;;;;5115675;28;19963;-59
2021/01/15 07:38:05;;;;;;;;;;;;;;;;;;5115504;28;19941;-59
2021/01/15 07:40:31;;;;;;;;;;;;;;;;;;5114997;28;19915;-60
2021/01/15 07:42:57;;;;;;;;;;;;;;;;;;5115295;28;19908;-60
2021/01/15 07:45:23;;;;;;;;;;;;;;;;;;5113516;28;19911;-59
2021/01/15 07:47:49;;;;;;;;;;;;;;;;;;5091530;28;19908;-59
2021/01/15 07:50:15;;;;;;;;;;;;;;;;;;5113319;27;19965;-59
2021/01/15 07:52:41;;;;;;;;;;;;;;;;;;5113079;27;19908;-60
2021/01/15 07:55:07;;;;;;;;;;;;;;;;;;5109563;28;20435;-60
2021/01/15 07:57:33;;;;;;;;;;;;;;;;;;5091625;28;19919;-58
2021/01/15 07:59:59;;;;;;;;;;;;;;;;;;5093291;28;20383;-60
2021/01/15 08:02:25;;;;;;;;;;;;;;;;;;5112414;28;19908;-59
2021/01/15 08:04:51;;;;;;;;;;;;;;;;;;5111935;28;19908;-59
2021/01/15 08:07:17;;;;;;;;;;;;;;;;;;5111293;28;20463;-60
2021/01/15 08:09:43;;;;;;;;;;;;;;;;;;5111459;28;19931;-59
2021/01/15 08:12:09;;;;;;;;;;;;;;;;;;5094036;28;19933;-58
2021/01/15 08:14:35;;;;;;;;;;;;;;;;;;5114337;28;19912;-58
2021/01/15 08:17:03;;;;;;;;;;;;;;;;;;5112538;28;19979;-58
2021/01/15 08:19:29;;;;;;;;;;;;;;;;;;5112538;28;19966;-59
2021/01/15 08:21:55;;;;;;;;;;;;;;;;;;5112308;28;19974;-59
2021/01/15 08:24:24;;;;;;;;;;;;;;;;;;5111542;28;19947;-59
2021/01/15 08:26:53;;;;;;;;;;;;;;;;;;5110726;28;19911;-59
2021/01/15 08:29:19;;;;;;;;;;;;;;;;;;5110557;28;19915;-60
2021/01/15 08:31:45;;;;;;;;;;;;;;;;;;5111341;28;19985;-59
2021/01/15 08:34:11;;;;;;;;;;;;;;;;;;5112319;28;19912;-59
2021/01/15 08:36:37;;;;;;;;;;;;;;;;;;5112196;28;19963;-59
2021/01/15 08:39:04;;;;;;;;;;;;;;;;;;5112468;28;19912;-59
2021/01/15 08:41:30;;;;;;;;;;;;;;;;;;5114030;28;20280;-59
2021/01/15 08:43:56;;;;;;;;;;;;;;;;;;5113580;28;19999;-59
2021/01/15 08:46:22;;;;;;;;;;;;;;;;;;5094515;28;19908;-59
2021/01/15 08:48:48;;;;;;;;;;;;;;;;;;5113606;28;20313;-60
2021/01/15 08:51:25;;;;;;;;;;;;;;;;;;5113375;28;20273;-59
2021/01/15 08:54:07;;;;;;;;;;;;;;;;;;5113689;28;19964;-57
2021/01/15 08:56:33;;;;;;;;;;;;;;;;;;5113760;28;19911;-59
2021/01/15 08:58:59;;;;;;;;;;;;;;;;;;5112324;28;20016;-59
2021/01/15 09:01:25;;;;;;;;;;;;;;;;;;5094939;28;19961;-58
2021/01/15 09:03:51;;;;;;;;;;;;;;;;;;5113527;28;19969;-59
2021/01/15 09:06:17;;;;;;;;;;;;;;;;;;5094515;28;19908;-60
2021/01/15 09:08:43;;;;;;;;;;;;;;;;;;5094934;28;19915;-60
2021/01/15 09:11:09;;;;;;;;;;;;;;;;;;5113123;28;20379;-59
2021/01/15 09:13:36;;;;;;;;;;;;;;;;;;5113034;28;19908;-59
2021/01/15 09:16:02;;;;;;;;;;;;;;;;;;5110832;28;19908;-59
2021/01/15 09:18:28;;;;;;;;;;;;;;;;;;5113402;28;20015;-60
2021/01/15 09:20:54;;;;;;;;;;;;;;;;;;5113293;28;19912;-60
2021/01/15 09:23:20;;;;;;;;;;;;;;;;;;5113671;28;19908;-60
2021/01/15 09:25:46;;;;;;;;;;;;;;;;;;5113210;28;19930;-59
2021/01/15 09:28:12;;;;;;;;;;;;;;;;;;5113623;28;19908;-59
2021/01/15 09:30:38;;;;;;;;;;;;;;;;;;5113421;28;20295;-60
2021/01/15 09:33:04;;;;;;;;;;;;;;;;;;5113370;28;19908;-59
2021/01/15 09:35:30;;;;;;;;;;;;;;;;;;5113415;28;19956;-60
2021/01/15 09:37:56;;;;;;;;;;;;;;;;;;5113512;28;20379;-60
2021/01/15 09:40:22;;;;;;;;;;;;;;;;;;5113192;28;19948;-60
2021/01/15 09:42:48;;;;;;;;;;;;;;;;;;5094828;28;20317;-60
2021/01/15 09:45:14;;;;;;;;;;;;;;;;;;5113373;28;20268;-60
2021/01/15 09:47:42;;;;;;;;;;;;;;;;;;5112760;28;19908;-60
2021/01/15 09:50:08;;;;;;;;;;;;;;;;;;5113038;28;19924;-61
2021/01/15 09:52:36;;;;;;;;;;;;;;;;;;5112998;28;20002;-58
2021/01/15 09:55:02;;;;;;;;;;;;;;;;;;5112733;28;20279;-59
2021/01/15 09:57:28;;;;;;;;;;;;;;;;;;5113251;28;19908;-60
2021/01/15 09:59:55;;;;;;;;;;;;;;;;;;5113038;28;19908;-60
2021/01/15 10:02:21;;;;;;;;;;;;;;;;;;5112626;28;19907;-61
2021/01/15 10:04:47;;;;;;;;;;;;;;;;;;5094911;28;19995;-60
2021/01/15 10:07:12;;;;;;;;;;;;;;;;;;5113122;28;19961;-60
2021/01/15 10:09:38;;;;;;;;;;;;;;;;;;5112567;28;20380;-59
2021/01/15 10:12:04;;;;;;;;;;;;;;;;;;5116086;28;19915;-60
2021/01/15 10:14:30;;;;;;;;;;;;;;;;;;5117235;28;19932;-60
2021/01/15 10:16:56;;;;;;;;;;;;;;;;;;5098691;28;20339;-60
2021/01/15 10:19:22;;;;;;;;;;;;;;;;;;5117329;28;19914;-60
2021/01/15 10:21:48;;;;;;;;;;;;;;;;;;5117073;28;20444;-60
2021/01/15 10:24:14;;;;;;;;;;;;;;;;;;5116733;28;19908;-61
2021/01/15 10:26:40;;;;;;;;;;;;;;;;;;5098747;28;20379;-64
2021/01/15 10:29:06;;;;;;;;;;;;;;;;;;5116647;28;19908;-64
2021/01/15 10:31:32;;;;;;;;;;;;;;;;;;5115063;28;19911;-64
2021/01/15 10:33:58;;;;;;;;;;;;;;;;;;5115042;28;19908;-64
2021/01/15 10:36:24;;;;;;;;;;;;;;;;;;5114771;28;19914;-63
2021/01/15 10:38:50;;;;;;;;;;;;;;;;;;5116808;28;19943;-65
2021/01/15 10:41:16;;;;;;;;;;;;;;;;;;5114402;28;19994;-65
2021/01/15 10:43:42;;;;;;;;;;;;;;;;;;5095359;28;19908;-63
2021/01/15 10:46:09;;;;;;;;;;;;;;;;;;5116364;28;20274;-64
2021/01/15 10:48:35;;;;;;;;;;;;;;;;;;5115270;27;19908;-62
2021/01/15 10:51:01;;;;;;;;;;;;;;;;;;5113460;27;19927;-62
2021/01/15 10:53:27;;;;;;;;;;;;;;;;;;5120517;27;19931;-62
2021/01/15 10:55:52;;;;;;;;;;;;;;;;;;5097723;27;19908;-62
2021/01/15 10:58:18;;;;;;;;;;;;;;;;;;5097607;28;19915;-62
2021/01/15 11:00:44;;;;;;;;;;;;;;;;;;5116067;28;19908;-63
2021/01/15 11:03:10;;;;;;;;;;;;;;;;;;5116075;28;19998;-64
2021/01/15 11:05:36;;;;;;;;;;;;;;;;;;5115427;28;19911;-64
2021/01/15 11:08:02;;;;;;;;;;;;;;;;;;5124176;27;19907;-63
2021/01/15 11:10:28;;;;;;;;;;;;;;;;;;5136132;27;19915;-63
2021/01/15 11:12:54;;;;;;;;;;;;;;;;;;5136336;27;19935;-60
2021/01/15 11:15:20;;;;;;;;;;;;;;;;;;5136543;27;19960;-60
2021/01/15 11:17:46;;;;;;;;;;;;;;;;;;5136164;27;19914;-59
2021/01/15 11:20:12;;;;;;;;;;;;;;;;;;5116879;27;19950;-62
2021/01/15 11:22:38;;;;;;;;;;;;;;;;;;5116819;27;19908;-61
2021/01/15 11:25:04;;;;;;;;;;;;;;;;;;5136366;27;20364;-60
2021/01/15 11:27:30;;;;;;;;;;;;;;;;;;5136094;27;19946;-62
2021/01/15 11:29:56;;;;;;;;;;;;;;;;;;5136390;27;20363;-63
2021/01/15 11:32:23;;;;;;;;;;;;;;;;;;5136641;27;19908;-63
2021/01/15 11:34:49;;;;;;;;;;;;;;;;;;5135175;27;19907;-61
2021/01/15 11:37:17;;;;;;;;;;;;;;;;;;5134011;27;19907;-61
2021/01/15 11:39:43;;;;;;;;;;;;;;;;;;5112869;27;19919;-61
2021/01/15 11:42:09;;;;;;;;;;;;;;;;;;5097588;28;19911;-62
2021/01/15 11:44:35;;;;;;;;;;;;;;;;;;5097192;28;19934;-60
2021/01/15 11:47:01;;;;;;;;;;;;;;;;;;5115148;28;19998;-61
2021/01/15 11:49:28;;;;;;;;;;;;;;;;;;5115325;28;19924;-63
2021/01/15 11:51:54;;;;;;;;;;;;;;;;;;5112888;27;19927;-60
2021/01/15 11:54:21;;;;;;;;;;;;;;;;;;5130799;27;19976;-60
2021/01/15 11:56:46;;;;;;;;;;;;;;;;;;5110921;27;20347;-59
2021/01/15 11:59:12;;;;;;;;;;;;;;;;;;5135520;27;19907;-61
2021/01/15 12:01:38;;;;;;;;;;;;;;;;;;5133400;27;20430;-60
2021/01/15 12:04:05;;;;;;;;;;;;;;;;;;5121695;27;19908;-59
2021/01/15 12:06:31;;;;;;;;;;;;;;;;;;5129316;27;20359;-59
2021/01/15 12:08:58;;;;;;;;;;;;;;;;;;5114289;27;19960;-60
2021/01/15 12:11:24;;;;;;;;;;;;;;;;;;5134795;27;20227;-61
2021/01/15 12:13:50;;;;;;;;;;;;;;;;;;5134973;27;19907;-60
2021/01/15 12:16:16;;;;;;;;;;;;;;;;;;5122899;27;19907;-60
2021/01/15 12:18:42;;;;;;;;;;;;;;;;;;5094911;28;19915;-60
2021/01/15 12:21:08;;;;;;;;;;;;;;;;;;5129199;27;19911;-59
2021/01/15 12:23:34;;;;;;;;;;;;;;;;;;5115093;27;19977;-59
2021/01/15 12:26:01;;;;;;;;;;;;;;;;;;5111949;28;20007;-59
2021/01/15 12:28:27;;;;;;;;;;;;;;;;;;5112234;28;19908;-60
2021/01/15 12:30:53;;;;;;;;;;;;;;;;;;5111845;28;19926;-61
2021/01/15 12:33:19;;;;;;;;;;;;;;;;;;5116452;27;19912;-60
2021/01/15 12:35:45;;;;;;;;;;;;;;;;;;5120840;27;19946;-59
2021/01/15 12:38:11;;;;;;;;;;;;;;;;;;5111887;28;20507;-60
2021/01/15 12:40:37;;;;;;;;;;;;;;;;;;5095545;28;19911;-60
2021/01/15 12:43:03;;;;;;;;;;;;;;;;;;5115748;27;19915;-61
2021/01/15 12:45:29;;;;;;;;;;;;;;;;;;5133954;27;19942;-60
2021/01/15 12:47:55;;;;;;;;;;;;;;;;;;5133641;27;19915;-60
2021/01/15 12:50:21;;;;;;;;;;;;;;;;;;5133520;27;20380;-60
2021/01/15 12:52:47;;;;;;;;;;;;;;;;;;5133947;27;19998;-60
2021/01/15 12:55:13;;;;;;;;;;;;;;;;;;5134465;27;20338;-60
2021/01/15 12:57:39;;;;;;;;;;;;;;;;;;5134204;27;19908;-61
2021/01/15 13:00:05;;;;;;;;;;;;;;;;;;5134700;27;20474;-59
2021/01/15 13:02:31;;;;;;;;;;;;;;;;;;5134497;27;19907;-60
2021/01/15 13:04:57;;;;;;;;;;;;;;;;;;5115804;27;19931;-59
2021/01/15 13:07:23;;;;;;;;;;;;;;;;;;5134289;27;20360;-60
2021/01/15 13:09:49;;;;;;;;;;;;;;;;;;5133425;27;19922;-60
2021/01/15 13:12:16;;;;;;;;;;;;;;;;;;5133961;27;20264;-60
2021/01/15 13:14:42;;;;;;;;;;;;;;;;;;5134456;27;20375;-60
2021/01/15 13:17:08;;;;;;;;;;;;;;;;;;5134308;27;19912;-60
2021/01/15 13:19:34;;;;;;;;;;;;;;;;;;5133816;27;20280;-60
2021/01/15 13:22:00;;;;;;;;;;;;;;;;;;5134306;27;19933;-60
2021/01/15 13:24:26;;;;;;;;;;;;;;;;;;5134169;27;19908;-60
2021/01/15 13:26:52;;;;;;;;;;;;;;;;;;5133880;27;19915;-60
2021/01/15 13:29:18;;;;;;;;;;;;;;;;;;5134209;27;19912;-61
2021/01/15 13:31:44;;;;;;;;;;;;;;;;;;5134396;27;19911;-60
2021/01/15 13:34:10;;;;;;;;;;;;;;;;;;5133833;27;20015;-60
2021/01/15 13:36:36;;;;;;;;;;;;;;;;;;5134044;27;19907;-60
2021/01/15 13:39:02;;;;;;;;;;;;;;;;;;5133994;27;19930;-60
2021/01/15 13:41:28;;;;;;;;;;;;;;;;;;5133524;27;20287;-60
2021/01/15 13:43:54;;;;;;;;;;;;;;;;;;5133992;27;19907;-60
2021/01/15 13:46:20;;;;;;;;;;;;;;;;;;5133355;27;19907;-61
2021/01/15 13:48:46;;;;;;;;;;;;;;;;;;5133948;27;20367;-60
2021/01/15 13:51:14;;;;;;;;;;;;;;;;;;5133838;27;20010;-61
2021/01/15 13:53:40;;;;;;;;;;;;;;;;;;5133449;27;19908;-61
2021/01/15 13:56:06;;;;;;;;;;;;;;;;;;5133840;27;20107;-59
2021/01/15 13:58:32;;;;;;;;;;;;;;;;;;5133635;28;20011;-60
2021/01/15 14:00:58;;;;;;;;;;;;;;;;;;5133339;28;19927;-60
2021/01/15 14:03:24;;;;;;;;;;;;;;;;;;5133651;28;19994;-60
2021/01/15 14:05:51;;;;;;;;;;;;;;;;;;5133736;28;19908;-60
2021/01/15 14:08:17;;;;;;;;;;;;;;;;;;5115217;28;19911;-60
2021/01/15 14:10:43;;;;;;;;;;;;;;;;;;5133629;28;20340;-60
2021/01/15 14:13:09;;;;;;;;;;;;;;;;;;5115213;28;19946;-60
2021/01/15 14:15:35;;;;;;;;;;;;;;;;;;5133136;28;20381;-60
2021/01/15 14:18:01;;;;;;;;;;;;;;;;;;5133532;28;19914;-60
2021/01/15 14:20:27;;;;;;;;;;;;;;;;;;5115123;28;20367;-61
2021/01/15 14:22:53;;;;;;;;;;;;;;;;;;5133104;28;19912;-60
2021/01/15 14:25:20;;;;;;;;;;;;;;;;;;5133485;28;19908;-60
2021/01/15 14:27:46;;;;;;;;;;;;;;;;;;5133538;28;19944;-59
2021/01/15 14:30:12;;;;;;;;;;;;;;;;;;5133471;28;19970;-60
2021/01/15 14:32:37;;;;;;;;;;;;;;;;;;5133456;28;19912;-60
2021/01/15 14:35:03;;;;;;;;;;;;;;;;;;5114892;28;20282;-61
2021/01/15 14:37:30;;;;;;;;;;;;;;;;;;5132944;28;19908;-60
2021/01/15 14:39:56;;;;;;;;;;;;;;;;;;5133208;28;20317;-60
2021/01/15 14:42:22;;;;;;;;;;;;;;;;;;5133296;28;19911;-60
2021/01/15 14:44:48;;;;;;;;;;;;;;;;;;5114738;28;19907;-60
2021/01/15 14:47:15;;;;;;;;;;;;;;;;;;5133214;28;19914;-60
2021/01/15 14:49:41;;;;;;;;;;;;;;;;;;5132676;28;19923;-60
2021/01/15 14:52:07;;;;;;;;;;;;;;;;;;5133062;28;19970;-60
2021/01/15 14:54:33;;;;;;;;;;;;;;;;;;5133223;28;19918;-59
2021/01/15 14:57:00;;;;;;;;;;;;;;;;;;5132790;27;19907;-59
2021/01/15 14:59:26;;;;;;;;;;;;;;;;;;5136670;27;19919;-59
2021/01/15 15:01:53;;;;;;;;;;;;;;;;;;5136924;27;19908;-59
2021/01/15 15:04:19;;;;;;;;;;;;;;;;;;5117945;27;19934;-59
2021/01/15 15:06:46;;;;;;;;;;;;;;;;;;5136825;27;19911;-59
2021/01/15 15:09:12;;;;;;;;;;;;;;;;;;5136813;27;19908;-59
2021/01/15 15:11:38;;;;;;;;;;;;;;;;;;5136389;27;19964;-59
2021/01/15 15:14:04;;;;;;;;;;;;;;;;;;5117971;27;19908;-58
2021/01/15 15:16:30;;;;;;;;;;;;;;;;;;5135176;27;20433;-62
2021/01/15 15:18:56;;;;;;;;;;;;;;;;;;5134607;27;19914;-61
2021/01/15 15:21:22;;;;;;;;;;;;;;;;;;5134627;27;19914;-60
2021/01/15 15:23:48;;;;;;;;;;;;;;;;;;5134846;27;20339;-60
2021/01/15 15:26:14;;;;;;;;;;;;;;;;;;5115894;27;19907;-60
2021/01/15 15:28:41;;;;;;;;;;;;;;;;;;5136610;27;19908;-61
2021/01/15 15:31:07;;;;;;;;;;;;;;;;;;5136305;27;19915;-60
2021/01/15 15:33:33;;;;;;;;;;;;;;;;;;5135931;27;19918;-60
2021/01/15 15:35:59;;;;;;;;;;;;;;;;;;5136190;27;19923;-59
2021/01/15 15:38:25;;;;;;;;;;;;;;;;;;5136589;27;20002;-60
2021/01/15 15:40:51;;;;;;;;;;;;;;;;;;5135726;27;19915;-59
2021/01/15 15:43:21;;;;;;;;;;;;;;;;;;5136188;27;19908;-60
2021/01/15 15:45:47;;;;;;;;;;;;;;;;;;5135894;27;19915;-59
2021/01/15 15:48:13;;;;;;;;;;;;;;;;;;5136077;27;19911;-60
2021/01/15 15:50:39;;;;;;;;;;;;;;;;;;5135787;27;19972;-59
2021/01/15 15:53:05;;;;;;;;;;;;;;;;;;5135439;27;20305;-59
2021/01/15 15:55:31;;;;;;;;;;;;;;;;;;5134420;27;19907;-58
2021/01/15 15:57:57;;;;;;;;;;;;;;;;;;5135786;27;19907;-58
2021/01/15 16:00:24;;;;;;;;;;;;;;;;;;5135361;27;19968;-59
2021/01/15 16:02:50;;;;;;;;;;;;;;;;;;5135703;27;19908;-60
2021/01/15 16:05:16;;;;;;;;;;;;;;;;;;5117202;27;19930;-59
2021/01/15 16:07:41;;;;;;;;;;;;;;;;;;5135473;27;19964;-59
2021/01/15 16:10:07;;;;;;;;;;;;;;;;;;5135361;27;20354;-60
2021/01/15 16:12:33;;;;;;;;;;;;;;;;;;5135422;27;19918;-60
2021/01/15 16:14:59;;;;;;;;;;;;;;;;;;5135124;27;20359;-59
2021/01/15 16:17:26;;;;;;;;;;;;;;;;;;5135443;27;19957;-59
2021/01/15 16:19:52;;;;;;;;;;;;;;;;;;5135342;27;20018;-59
2021/01/15 16:22:18;;;;;;;;;;;;;;;;;;5134870;27;19914;-60
2021/01/15 16:24:44;;;;;;;;;;;;;;;;;;5135583;27;19912;-60
2021/01/15 16:27:09;;;;;;;;;;;;;;;;;;5133429;27;20007;-60
2021/01/15 16:29:35;;;;;;;;;;;;;;;;;;5134046;27;19911;-60
2021/01/15 16:32:01;;;;;;;;;;;;;;;;;;5133514;27;19912;-59
2021/01/15 16:34:27;;;;;;;;;;;;;;;;;;5133111;27;20064;-63
2021/01/15 16:36:53;;;;;;;;;;;;;;;;;;5132606;27;19911;-61